sensor_id;sensor_type;location;lat;lon;timestamp;temperature;humidity
44894;DHT22;30625;52.206;21.030;2023-05-20T00:00:17;13.80;99.90
44894;DHT22;30625;52.206;21.030;2023-05-20T00:02:43;13.80;99.90
44894;DHT22;30625;52.206;21.030;2023-05-20T00:05:09;13.80;99.90
44894;DHT22;30625;52.206;21.030;2023-05-20T00:07:35;13.80;99.90
44894;DHT22;30625;52.206;21.030;2023-05-20T00:10:00;13.80;99.90
44894;DHT22;30625;52.206;21.030;2023-05-20T00:12:26;13.80;99.90
44894;DHT22;30625;52.206;21.030;2023-05-20T00:14:52;13.80;99.90
44894;DHT22;30625;52.206;21.030;2023-05-20T00:17:18;13.80;99.90
44894;DHT22;30625;52.206;21.030;2023-05-20T00:19:44;13.80;99.90
44894;DHT22;30625;52.206;21.030;2023-05-20T00:22:09;13.80;99.90
44894;DHT22;30625;52.206;21.030;2023-05-20T00:24:35;13.80;99.90
44894;DHT22;30625;52.206;21.030;2023-05-20T00:27:01;13.70;99.90
44894;DHT22;30625;52.206;21.030;2023-05-20T00:29:27;13.80;99.90
44894;DHT22;30625;52.206;21.030;2023-05-20T00:31:53;13.70;99.90
44894;DHT22;30625;52.206;21.030;2023-05-20T00:34:19;13.80;99.90
44894;DHT22;30625;52.206;21.030;2023-05-20T00:36:45;13.70;99.90
44894;DHT22;30625;52.206;21.030;2023-05-20T00:39:11;13.80;99.90
44894;DHT22;30625;52.206;21.030;2023-05-20T00:41:37;13.70;99.90
44894;DHT22;30625;52.206;21.030;2023-05-20T00:44:03;12.10;99.90
44894;DHT22;30625;52.206;21.030;2023-05-20T00:46:29;13.70;99.90
44894;DHT22;30625;52.206;21.030;2023-05-20T00:48:55;13.60;99.90
44894;DHT22;30625;52.206;21.030;2023-05-20T00:51:21;13.60;99.90
44894;DHT22;30625;52.206;21.030;2023-05-20T00:53:47;13.60;99.90
44894;DHT22;30625;52.206;21.030;2023-05-20T00:56:14;13.60;99.90
44894;DHT22;30625;52.206;21.030;2023-05-20T00:58:39;13.50;99.90
44894;DHT22;30625;52.206;21.030;2023-05-20T01:01:05;13.60;99.90
44894;DHT22;30625;52.206;21.030;2023-05-20T01:03:31;13.60;99.90
44894;DHT22;30625;52.206;21.030;2023-05-20T01:05:57;13.50;99.90
44894;DHT22;30625;52.206;21.030;2023-05-20T01:08:24;13.60;99.90
44894;DHT22;30625;52.206;21.030;2023-05-20T01:11:05;13.50;99.90
44894;DHT22;30625;52.206;21.030;2023-05-20T01:13:41;13.50;99.90
44894;DHT22;30625;52.206;21.030;2023-05-20T01:16:09;13.50;99.90
44894;DHT22;30625;52.206;21.030;2023-05-20T01:18:37;13.50;99.90
44894;DHT22;30625;52.206;21.030;2023-05-20T01:21:05;13.50;99.90
44894;DHT22;30625;52.206;21.030;2023-05-20T01:23:37;13.50;99.90
44894;DHT22;30625;52.206;21.030;2023-05-20T01:26:07;13.50;99.90
44894;DHT22;30625;52.206;21.030;2023-05-20T01:28:35;13.50;99.90
44894;DHT22;30625;52.206;21.030;2023-05-20T01:31:04;13.50;99.90
44894;DHT22;30625;52.206;21.030;2023-05-20T01:33:35;15.20;99.90
44894;DHT22;30625;52.206;21.030;2023-05-20T01:36:01;12.50;99.90
44894;DHT22;30625;52.206;21.030;2023-05-20T01:38:27;13.40;99.90
44894;DHT22;30625;52.206;21.030;2023-05-20T01:40:53;13.40;99.90
44894;DHT22;30625;52.206;21.030;2023-05-20T01:43:19;13.40;99.90
44894;DHT22;30625;52.206;21.030;2023-05-20T01:45:45;13.40;99.90
44894;DHT22;30625;52.206;21.030;2023-05-20T01:48:11;13.40;99.90
44894;DHT22;30625;52.206;21.030;2023-05-20T01:50:38;13.40;99.90
44894;DHT22;30625;52.206;21.030;2023-05-20T01:53:04;13.40;99.90
44894;DHT22;30625;52.206;21.030;2023-05-20T01:55:30;13.40;99.90
44894;DHT22;30625;52.206;21.030;2023-05-20T01:57:56;13.40;99.90
44894;DHT22;30625;52.206;21.030;2023-05-20T02:00:22;13.40;99.90
44894;DHT22;30625;52.206;21.030;2023-05-20T02:02:47;13.40;99.90
44894;DHT22;30625;52.206;21.030;2023-05-20T02:05:13;13.30;99.90
44894;DHT22;30625;52.206;21.030;2023-05-20T02:07:39;13.30;99.90
44894;DHT22;30625;52.206;21.030;2023-05-20T02:10:05;13.30;99.90
44894;DHT22;30625;52.206;21.030;2023-05-20T02:12:31;13.30;99.90
44894;DHT22;30625;52.206;21.030;2023-05-20T02:14:57;13.30;99.90
44894;DHT22;30625;52.206;21.030;2023-05-20T02:17:22;13.30;99.90
44894;DHT22;30625;52.206;21.030;2023-05-20T02:19:48;13.30;99.90
44894;DHT22;30625;52.206;21.030;2023-05-20T02:22:14;13.40;99.90
44894;DHT22;30625;52.206;21.030;2023-05-20T02:24:40;13.30;99.90
44894;DHT22;30625;52.206;21.030;2023-05-20T02:27:07;13.30;99.90
44894;DHT22;30625;52.206;21.030;2023-05-20T02:29:33;13.30;99.90
44894;DHT22;30625;52.206;21.030;2023-05-20T02:31:59;13.30;99.90
44894;DHT22;30625;52.206;21.030;2023-05-20T02:34:24;13.30;99.90
44894;DHT22;30625;52.206;21.030;2023-05-20T02:36:50;13.30;99.90
44894;DHT22;30625;52.206;21.030;2023-05-20T02:39:17;13.30;99.90
44894;DHT22;30625;52.206;21.030;2023-05-20T02:41:42;13.30;99.90
44894;DHT22;30625;52.206;21.030;2023-05-20T02:44:08;13.30;99.90
44894;DHT22;30625;52.206;21.030;2023-05-20T02:46:34;13.30;99.90
44894;DHT22;30625;52.206;21.030;2023-05-20T02:49:00;13.30;99.90
44894;DHT22;30625;52.206;21.030;2023-05-20T02:51:25;13.30;99.90
44894;DHT22;30625;52.206;21.030;2023-05-20T02:53:51;13.30;99.90
44894;DHT22;30625;52.206;21.030;2023-05-20T02:56:17;13.30;99.90
44894;DHT22;30625;52.206;21.030;2023-05-20T02:58:46;13.40;99.90
44894;DHT22;30625;52.206;21.030;2023-05-20T03:01:12;13.40;99.90
44894;DHT22;30625;52.206;21.030;2023-05-20T03:03:37;13.30;99.90
44894;DHT22;30625;52.206;21.030;2023-05-20T03:06:05;13.30;99.90
44894;DHT22;30625;52.206;21.030;2023-05-20T03:08:32;13.30;99.90
44894;DHT22;30625;52.206;21.030;2023-05-20T03:11:01;13.40;99.90
44894;DHT22;30625;52.206;21.030;2023-05-20T03:13:27;13.40;99.90
44894;DHT22;30625;52.206;21.030;2023-05-20T03:15:53;13.40;99.90
44894;DHT22;30625;52.206;21.030;2023-05-20T03:18:18;13.40;99.90
44894;DHT22;30625;52.206;21.030;2023-05-20T03:20:45;13.50;99.90
44894;DHT22;30625;52.206;21.030;2023-05-20T03:23:11;13.50;99.90
44894;DHT22;30625;52.206;21.030;2023-05-20T03:25:37;13.40;99.90
44894;DHT22;30625;52.206;21.030;2023-05-20T03:28:03;13.40;99.90
44894;DHT22;30625;52.206;21.030;2023-05-20T03:30:30;13.40;99.90
44894;DHT22;30625;52.206;21.030;2023-05-20T03:32:56;13.40;99.90
44894;DHT22;30625;52.206;21.030;2023-05-20T03:35:24;13.50;99.90
44894;DHT22;30625;52.206;21.030;2023-05-20T03:37:50;13.40;99.90
44894;DHT22;30625;52.206;21.030;2023-05-20T03:40:17;13.40;99.90
44894;DHT22;30625;52.206;21.030;2023-05-20T03:42:45;13.40;99.90
44894;DHT22;30625;52.206;21.030;2023-05-20T03:45:10;13.50;99.90
44894;DHT22;30625;52.206;21.030;2023-05-20T03:47:36;13.50;99.90
44894;DHT22;30625;52.206;21.030;2023-05-20T03:50:02;13.50;99.90
44894;DHT22;30625;52.206;21.030;2023-05-20T03:52:28;13.60;99.90
44894;DHT22;30625;52.206;21.030;2023-05-20T03:54:53;13.70;99.90
44894;DHT22;30625;52.206;21.030;2023-05-20T03:57:19;13.70;99.90
44894;DHT22;30625;52.206;21.030;2023-05-20T03:59:45;13.70;99.90
44894;DHT22;30625;52.206;21.030;2023-05-20T04:02:10;13.70;99.90
44894;DHT22;30625;52.206;21.030;2023-05-20T04:04:36;13.60;99.90
44894;DHT22;30625;52.206;21.030;2023-05-20T04:07:02;13.70;99.90
44894;DHT22;30625;52.206;21.030;2023-05-20T04:09:29;13.70;99.90
44894;DHT22;30625;52.206;21.030;2023-05-20T04:11:55;13.70;99.90
44894;DHT22;30625;52.206;21.030;2023-05-20T04:14:21;13.80;99.90
44894;DHT22;30625;52.206;21.030;2023-05-20T04:16:47;13.90;99.90
44894;DHT22;30625;52.206;21.030;2023-05-20T04:19:12;13.90;99.90
44894;DHT22;30625;52.206;21.030;2023-05-20T04:21:41;13.90;99.90
44894;DHT22;30625;52.206;21.030;2023-05-20T04:24:07;14.00;99.90
44894;DHT22;30625;52.206;21.030;2023-05-20T04:26:32;14.00;99.90
44894;DHT22;30625;52.206;21.030;2023-05-20T04:29:01;14.00;99.90
44894;DHT22;30625;52.206;21.030;2023-05-20T04:31:28;14.10;99.90
44894;DHT22;30625;52.206;21.030;2023-05-20T04:33:56;14.10;99.90
44894;DHT22;30625;52.206;21.030;2023-05-20T04:36:22;14.20;99.90
44894;DHT22;30625;52.206;21.030;2023-05-20T04:38:56;14.30;99.90
44894;DHT22;30625;52.206;21.030;2023-05-20T04:41:21;14.30;99.90
44894;DHT22;30625;52.206;21.030;2023-05-20T04:43:48;14.30;99.90
44894;DHT22;30625;52.206;21.030;2023-05-20T04:46:14;14.40;99.90
44894;DHT22;30625;52.206;21.030;2023-05-20T04:48:41;14.50;99.90
44894;DHT22;30625;52.206;21.030;2023-05-20T04:51:08;14.50;99.90
44894;DHT22;30625;52.206;21.030;2023-05-20T04:53:34;14.50;99.90
44894;DHT22;30625;52.206;21.030;2023-05-20T04:56:00;14.60;99.90
44894;DHT22;30625;52.206;21.030;2023-05-20T04:58:26;14.60;99.90
44894;DHT22;30625;52.206;21.030;2023-05-20T05:00:54;14.60;99.90
44894;DHT22;30625;52.206;21.030;2023-05-20T05:03:21;14.70;99.90
44894;DHT22;30625;52.206;21.030;2023-05-20T05:05:46;14.70;99.90
44894;DHT22;30625;52.206;21.030;2023-05-20T05:08:12;14.80;99.90
44894;DHT22;30625;52.206;21.030;2023-05-20T05:10:38;14.80;99.90
44894;DHT22;30625;52.206;21.030;2023-05-20T05:13:03;14.80;99.90
44894;DHT22;30625;52.206;21.030;2023-05-20T05:15:29;14.90;99.90
44894;DHT22;30625;52.206;21.030;2023-05-20T05:17:55;14.90;99.90
44894;DHT22;30625;52.206;21.030;2023-05-20T05:20:21;15.00;99.90
44894;DHT22;30625;52.206;21.030;2023-05-20T05:22:47;15.00;99.90
44894;DHT22;30625;52.206;21.030;2023-05-20T05:25:15;15.20;99.90
44894;DHT22;30625;52.206;21.030;2023-05-20T05:27:40;15.40;99.90
44894;DHT22;30625;52.206;21.030;2023-05-20T05:30:07;15.50;99.90
44894;DHT22;30625;52.206;21.030;2023-05-20T05:32:32;15.60;99.90
44894;DHT22;30625;52.206;21.030;2023-05-20T05:34:58;15.80;99.90
44894;DHT22;30625;52.206;21.030;2023-05-20T05:37:24;15.90;99.90
44894;DHT22;30625;52.206;21.030;2023-05-20T05:39:50;16.10;99.90
44894;DHT22;30625;52.206;21.030;2023-05-20T05:42:15;16.30;99.90
44894;DHT22;30625;52.206;21.030;2023-05-20T05:44:41;16.50;99.90
44894;DHT22;30625;52.206;21.030;2023-05-20T05:47:07;16.60;99.90
44894;DHT22;30625;52.206;21.030;2023-05-20T05:49:33;16.70;99.90
44894;DHT22;30625;52.206;21.030;2023-05-20T05:51:59;16.80;99.90
44894;DHT22;30625;52.206;21.030;2023-05-20T05:54:25;16.80;99.90
44894;DHT22;30625;52.206;21.030;2023-05-20T05:56:51;17.20;99.90
44894;DHT22;30625;52.206;21.030;2023-05-20T05:59:17;17.20;99.90
44894;DHT22;30625;52.206;21.030;2023-05-20T06:01:43;17.30;99.90
44894;DHT22;30625;52.206;21.030;2023-05-20T06:04:09;17.30;99.90
44894;DHT22;30625;52.206;21.030;2023-05-20T06:06:34;17.40;99.90
44894;DHT22;30625;52.206;21.030;2023-05-20T06:09:00;17.70;99.90
44894;DHT22;30625;52.206;21.030;2023-05-20T06:11:26;18.00;99.90
44894;DHT22;30625;52.206;21.030;2023-05-20T06:13:51;18.30;99.90
44894;DHT22;30625;52.206;21.030;2023-05-20T06:16:17;18.80;99.90
44894;DHT22;30625;52.206;21.030;2023-05-20T06:18:44;19.60;97.80
44894;DHT22;30625;52.206;21.030;2023-05-20T06:21:10;19.70;96.70
44894;DHT22;30625;52.206;21.030;2023-05-20T06:23:36;20.00;96.80
44894;DHT22;30625;52.206;21.030;2023-05-20T06:26:01;20.30;95.90
44894;DHT22;30625;52.206;21.030;2023-05-20T06:28:28;20.40;95.20
44894;DHT22;30625;52.206;21.030;2023-05-20T06:30:54;20.50;94.80
44894;DHT22;30625;52.206;21.030;2023-05-20T06:33:22;21.00;95.10
44894;DHT22;30625;52.206;21.030;2023-05-20T06:35:51;21.10;94.10
44894;DHT22;30625;52.206;21.030;2023-05-20T06:38:17;21.60;93.90
44894;DHT22;30625;52.206;21.030;2023-05-20T06:40:44;22.20;92.70
44894;DHT22;30625;52.206;21.030;2023-05-20T06:43:09;22.70;93.00
44894;DHT22;30625;52.206;21.030;2023-05-20T06:45:35;23.00;92.60
44894;DHT22;30625;52.206;21.030;2023-05-20T06:48:01;23.10;90.60
44894;DHT22;30625;52.206;21.030;2023-05-20T06:50:26;23.40;90.50
44894;DHT22;30625;52.206;21.030;2023-05-20T06:52:55;23.30;90.40
44894;DHT22;30625;52.206;21.030;2023-05-20T06:55:20;23.80;91.00
44894;DHT22;30625;52.206;21.030;2023-05-20T06:57:46;24.00;90.00
44894;DHT22;30625;52.206;21.030;2023-05-20T07:00:12;24.60;89.60
44894;DHT22;30625;52.206;21.030;2023-05-20T07:02:38;24.70;87.50
44894;DHT22;30625;52.206;21.030;2023-05-20T07:05:05;24.90;84.80
44894;DHT22;30625;52.206;21.030;2023-05-20T07:07:31;24.80;85.80
44894;DHT22;30625;52.206;21.030;2023-05-20T07:09:57;24.40;84.30
44894;DHT22;30625;52.206;21.030;2023-05-20T07:12:23;24.20;85.50
44894;DHT22;30625;52.206;21.030;2023-05-20T07:14:49;23.50;86.60
44894;DHT22;30625;52.206;21.030;2023-05-20T07:17:15;23.20;86.80
44894;DHT22;30625;52.206;21.030;2023-05-20T07:19:40;22.70;89.00
44894;DHT22;30625;52.206;21.030;2023-05-20T07:22:06;22.10;89.90
44894;DHT22;30625;52.206;21.030;2023-05-20T07:24:32;21.80;91.60
44894;DHT22;30625;52.206;21.030;2023-05-20T07:26:57;21.60;92.70
44894;DHT22;30625;52.206;21.030;2023-05-20T07:29:23;21.50;92.60
44894;DHT22;30625;52.206;21.030;2023-05-20T07:31:49;21.10;92.20
44894;DHT22;30625;52.206;21.030;2023-05-20T07:34:15;20.70;92.80
44894;DHT22;30625;52.206;21.030;2023-05-20T07:36:41;20.50;93.40
44894;DHT22;30625;52.206;21.030;2023-05-20T07:39:08;20.30;93.80
44894;DHT22;30625;52.206;21.030;2023-05-20T07:41:35;20.30;94.40
44894;DHT22;30625;52.206;21.030;2023-05-20T07:44:03;20.30;93.90
44894;DHT22;30625;52.206;21.030;2023-05-20T07:46:29;20.30;94.10
44894;DHT22;30625;52.206;21.030;2023-05-20T07:48:55;20.10;94.20
44894;DHT22;30625;52.206;21.030;2023-05-20T07:51:20;20.10;94.70
44894;DHT22;30625;52.206;21.030;2023-05-20T07:53:46;20.10;95.00
44894;DHT22;30625;52.206;21.030;2023-05-20T07:56:12;20.10;95.00
44894;DHT22;30625;52.206;21.030;2023-05-20T07:58:40;20.10;94.70
44894;DHT22;30625;52.206;21.030;2023-05-20T08:01:06;20.10;95.30
44894;DHT22;30625;52.206;21.030;2023-05-20T08:03:34;20.10;96.40
44894;DHT22;30625;52.206;21.030;2023-05-20T08:06:01;20.20;96.70
44894;DHT22;30625;52.206;21.030;2023-05-20T08:08:26;20.20;96.40
44894;DHT22;30625;52.206;21.030;2023-05-20T08:10:55;20.20;96.40
44894;DHT22;30625;52.206;21.030;2023-05-20T08:13:21;20.20;95.50
44894;DHT22;30625;52.206;21.030;2023-05-20T08:15:46;20.30;95.30
44894;DHT22;30625;52.206;21.030;2023-05-20T08:18:13;20.30;95.70
44894;DHT22;30625;52.206;21.030;2023-05-20T08:20:39;20.30;94.60
44894;DHT22;30625;52.206;21.030;2023-05-20T08:23:06;20.40;94.30
44894;DHT22;30625;52.206;21.030;2023-05-20T08:25:32;20.30;94.60
44894;DHT22;30625;52.206;21.030;2023-05-20T08:28:00;20.40;94.60
44894;DHT22;30625;52.206;21.030;2023-05-20T08:30:28;20.40;94.90
44894;DHT22;30625;52.206;21.030;2023-05-20T08:32:54;20.50;95.90
44894;DHT22;30625;52.206;21.030;2023-05-20T08:35:21;20.70;96.00
44894;DHT22;30625;52.206;21.030;2023-05-20T08:37:47;20.80;96.00
44894;DHT22;30625;52.206;21.030;2023-05-20T08:40:13;21.00;94.10
44894;DHT22;30625;52.206;21.030;2023-05-20T08:42:45;21.00;93.90
44894;DHT22;30625;52.206;21.030;2023-05-20T08:45:17;21.00;94.00
44894;DHT22;30625;52.206;21.030;2023-05-20T08:47:43;21.00;94.20
44894;DHT22;30625;52.206;21.030;2023-05-20T08:50:10;21.00;93.90
44894;DHT22;30625;52.206;21.030;2023-05-20T08:52:42;21.10;93.50
44894;DHT22;30625;52.206;21.030;2023-05-20T08:55:13;21.10;94.20
44894;DHT22;30625;52.206;21.030;2023-05-20T08:57:39;21.30;94.00
44894;DHT22;30625;52.206;21.030;2023-05-20T09:00:08;21.30;94.90
44894;DHT22;30625;52.206;21.030;2023-05-20T09:02:38;21.50;94.00
44894;DHT22;30625;52.206;21.030;2023-05-20T09:05:04;21.60;93.40
44894;DHT22;30625;52.206;21.030;2023-05-20T09:07:30;21.60;93.60
44894;DHT22;30625;52.206;21.030;2023-05-20T09:09:56;21.80;93.60
44894;DHT22;30625;52.206;21.030;2023-05-20T09:12:22;22.10;93.70
44894;DHT22;30625;52.206;21.030;2023-05-20T09:14:48;22.00;92.80
44894;DHT22;30625;52.206;21.030;2023-05-20T09:17:14;22.00;92.80
44894;DHT22;30625;52.206;21.030;2023-05-20T09:19:39;22.10;92.10
44894;DHT22;30625;52.206;21.030;2023-05-20T09:22:06;22.10;92.40
44894;DHT22;30625;52.206;21.030;2023-05-20T09:24:31;22.10;92.10
44894;DHT22;30625;52.206;21.030;2023-05-20T09:26:57;22.40;92.10
44894;DHT22;30625;52.206;21.030;2023-05-20T09:29:23;22.70;91.30
44894;DHT22;30625;52.206;21.030;2023-05-20T09:31:49;22.80;91.00
44894;DHT22;30625;52.206;21.030;2023-05-20T09:34:16;22.80;91.00
44894;DHT22;30625;52.206;21.030;2023-05-20T09:36:42;23.00;91.00
44894;DHT22;30625;52.206;21.030;2023-05-20T09:39:13;23.20;91.20
44894;DHT22;30625;52.206;21.030;2023-05-20T09:41:55;23.40;91.30
44894;DHT22;30625;52.206;21.030;2023-05-20T09:44:22;23.40;91.40
44894;DHT22;30625;52.206;21.030;2023-05-20T09:46:49;23.50;90.00
44894;DHT22;30625;52.206;21.030;2023-05-20T09:49:18;23.40;90.00
44894;DHT22;30625;52.206;21.030;2023-05-20T09:51:45;23.10;90.20
44894;DHT22;30625;52.206;21.030;2023-05-20T09:54:12;23.20;90.30
44894;DHT22;30625;52.206;21.030;2023-05-20T09:56:40;23.30;90.40
44894;DHT22;30625;52.206;21.030;2023-05-20T09:59:07;23.50;89.40
44894;DHT22;30625;52.206;21.030;2023-05-20T10:01:33;23.70;89.40
44894;DHT22;30625;52.206;21.030;2023-05-20T10:03:59;23.60;88.90
44894;DHT22;30625;52.206;21.030;2023-05-20T10:13:16;24.20;86.70
44894;DHT22;30625;52.206;21.030;2023-05-20T10:21:21;24.00;89.00
44894;DHT22;30625;52.206;21.030;2023-05-20T10:23:52;23.70;89.10
44894;DHT22;30625;52.206;21.030;2023-05-20T10:26:18;23.60;90.10
44894;DHT22;30625;52.206;21.030;2023-05-20T10:28:45;23.40;90.20
44894;DHT22;30625;52.206;21.030;2023-05-20T10:31:20;23.50;89.40
44894;DHT22;30625;52.206;21.030;2023-05-20T10:33:47;23.50;88.50
44894;DHT22;30625;52.206;21.030;2023-05-20T10:36:26;23.60;89.10
44894;DHT22;30625;52.206;21.030;2023-05-20T10:38:57;23.70;90.50
44894;DHT22;30625;52.206;21.030;2023-05-20T10:41:28;23.90;90.50
44894;DHT22;30625;52.206;21.030;2023-05-20T10:44:05;24.10;87.30
44894;DHT22;30625;52.206;21.030;2023-05-20T10:46:32;24.10;87.10
44894;DHT22;30625;52.206;21.030;2023-05-20T10:49:00;24.20;88.20
44894;DHT22;30625;52.206;21.030;2023-05-20T10:51:28;24.30;89.90
44894;DHT22;30625;52.206;21.030;2023-05-20T10:53:56;24.50;87.60
44894;DHT22;30625;52.206;21.030;2023-05-20T10:56:24;24.60;87.90
44894;DHT22;30625;52.206;21.030;2023-05-20T10:58:52;24.70;87.10
44894;DHT22;30625;52.206;21.030;2023-05-20T11:01:21;24.90;85.10
44894;DHT22;30625;52.206;21.030;2023-05-20T11:03:48;24.70;84.10
44894;DHT22;30625;52.206;21.030;2023-05-20T11:06:15;24.80;86.00
44894;DHT22;30625;52.206;21.030;2023-05-20T11:08:41;24.80;85.00
44894;DHT22;30625;52.206;21.030;2023-05-20T11:11:07;24.80;84.40
44894;DHT22;30625;52.206;21.030;2023-05-20T11:13:33;24.80;83.20
44894;DHT22;30625;52.206;21.030;2023-05-20T11:15:59;24.70;84.20
44894;DHT22;30625;52.206;21.030;2023-05-20T11:18:29;24.60;84.50
44894;DHT22;30625;52.206;21.030;2023-05-20T11:20:58;24.60;83.80
44894;DHT22;30625;52.206;21.030;2023-05-20T11:23:26;24.40;84.80
44894;DHT22;30625;52.206;21.030;2023-05-20T11:25:54;24.60;85.50
44894;DHT22;30625;52.206;21.030;2023-05-20T11:28:20;24.40;84.80
44894;DHT22;30625;52.206;21.030;2023-05-20T11:33:24;24.20;84.20
44894;DHT22;30625;52.206;21.030;2023-05-20T11:35:52;24.10;83.80
44894;DHT22;30625;52.206;21.030;2023-05-20T11:38:19;24.20;85.50
44894;DHT22;30625;52.206;21.030;2023-05-20T11:40:50;24.20;85.00
44894;DHT22;30625;52.206;21.030;2023-05-20T11:43:17;24.20;84.40
44894;DHT22;30625;52.206;21.030;2023-05-20T11:45:56;24.30;84.30
44894;DHT22;30625;52.206;21.030;2023-05-20T11:48:25;24.30;85.20
44894;DHT22;30625;52.206;21.030;2023-05-20T11:50:52;24.40;87.00
44894;DHT22;30625;52.206;21.030;2023-05-20T11:53:19;24.60;85.80
44894;DHT22;30625;52.206;21.030;2023-05-20T11:58:18;24.50;83.60
44894;DHT22;30625;52.206;21.030;2023-05-20T12:00:44;24.30;83.60
44894;DHT22;30625;52.206;21.030;2023-05-20T12:03:09;24.20;84.80
44894;DHT22;30625;52.206;21.030;2023-05-20T12:05:36;24.20;83.70
44894;DHT22;30625;52.206;21.030;2023-05-20T12:08:01;24.30;83.70
44894;DHT22;30625;52.206;21.030;2023-05-20T12:10:28;24.30;84.00
44894;DHT22;30625;52.206;21.030;2023-05-20T12:12:53;24.30;85.40
44894;DHT22;30625;52.206;21.030;2023-05-20T12:15:19;24.40;84.50
44894;DHT22;30625;52.206;21.030;2023-05-20T12:17:48;24.50;84.60
44894;DHT22;30625;52.206;21.030;2023-05-20T12:20:15;24.80;87.40
44894;DHT22;30625;52.206;21.030;2023-05-20T12:22:45;24.90;85.00
44894;DHT22;30625;52.206;21.030;2023-05-20T12:25:14;25.00;81.80
44894;DHT22;30625;52.206;21.030;2023-05-20T12:27:41;25.00;83.70
44894;DHT22;30625;52.206;21.030;2023-05-20T12:30:08;25.10;82.70
44894;DHT22;30625;52.206;21.030;2023-05-20T12:32:37;25.10;82.90
44894;DHT22;30625;52.206;21.030;2023-05-20T12:35:04;25.30;83.10
44894;DHT22;30625;52.206;21.030;2023-05-20T12:37:29;25.30;81.60
44894;DHT22;30625;52.206;21.030;2023-05-20T12:39:55;25.30;80.40
44894;DHT22;30625;52.206;21.030;2023-05-20T12:42:21;25.20;80.00
44894;DHT22;30625;52.206;21.030;2023-05-20T12:44:46;25.20;82.00
44894;DHT22;30625;52.206;21.030;2023-05-20T12:47:12;25.10;79.50
44894;DHT22;30625;52.206;21.030;2023-05-20T12:49:37;25.00;79.40
44894;DHT22;30625;52.206;21.030;2023-05-20T12:52:03;24.90;80.40
44894;DHT22;30625;52.206;21.030;2023-05-20T12:54:29;24.80;81.40
44894;DHT22;30625;52.206;21.030;2023-05-20T12:56:55;24.80;80.60
44894;DHT22;30625;52.206;21.030;2023-05-20T12:59:21;24.80;81.40
44894;DHT22;30625;52.206;21.030;2023-05-20T13:01:47;24.90;80.30
44894;DHT22;30625;52.206;21.030;2023-05-20T13:04:13;24.90;84.60
44894;DHT22;30625;52.206;21.030;2023-05-20T13:06:38;25.10;83.60
44894;DHT22;30625;52.206;21.030;2023-05-20T13:09:04;25.20;82.90
44894;DHT22;30625;52.206;21.030;2023-05-20T13:11:29;25.30;80.00
44894;DHT22;30625;52.206;21.030;2023-05-20T13:13:55;25.40;80.60
44894;DHT22;30625;52.206;21.030;2023-05-20T13:16:22;25.50;80.20
44894;DHT22;30625;52.206;21.030;2023-05-20T13:18:48;25.30;80.70
44894;DHT22;30625;52.206;21.030;2023-05-20T13:21:14;25.70;80.40
44894;DHT22;30625;52.206;21.030;2023-05-20T13:23:40;25.60;81.20
44894;DHT22;30625;52.206;21.030;2023-05-20T13:26:06;25.70;82.00
44894;DHT22;30625;52.206;21.030;2023-05-20T13:28:32;25.60;79.70
44894;DHT22;30625;52.206;21.030;2023-05-20T13:30:58;25.60;81.00
44894;DHT22;30625;52.206;21.030;2023-05-20T13:33:23;25.40;81.80
44894;DHT22;30625;52.206;21.030;2023-05-20T13:35:49;25.30;83.80
44894;DHT22;30625;52.206;21.030;2023-05-20T13:38:16;25.20;81.10
44894;DHT22;30625;52.206;21.030;2023-05-20T13:40:41;24.90;81.30
44894;DHT22;30625;52.206;21.030;2023-05-20T13:43:07;24.80;82.40
44894;DHT22;30625;52.206;21.030;2023-05-20T13:45:33;24.60;84.30
44894;DHT22;30625;52.206;21.030;2023-05-20T13:47:59;24.50;83.70
44894;DHT22;30625;52.206;21.030;2023-05-20T13:50:25;24.40;85.50
44894;DHT22;30625;52.206;21.030;2023-05-20T13:52:50;24.40;84.70
44894;DHT22;30625;52.206;21.030;2023-05-20T13:55:16;24.40;84.50
44894;DHT22;30625;52.206;21.030;2023-05-20T13:57:42;24.30;84.00
44894;DHT22;30625;52.206;21.030;2023-05-20T14:00:07;24.40;86.40
44894;DHT22;30625;52.206;21.030;2023-05-20T14:02:33;24.50;84.90
44894;DHT22;30625;52.206;21.030;2023-05-20T14:04:59;24.60;82.70
44894;DHT22;30625;52.206;21.030;2023-05-20T14:07:24;24.70;82.50
44894;DHT22;30625;52.206;21.030;2023-05-20T14:09:50;24.70;82.00
44894;DHT22;30625;52.206;21.030;2023-05-20T14:12:16;24.80;81.90
44894;DHT22;30625;52.206;21.030;2023-05-20T14:14:41;24.80;81.40
44894;DHT22;30625;52.206;21.030;2023-05-20T14:17:07;24.90;83.70
44894;DHT22;30625;52.206;21.030;2023-05-20T14:19:33;25.00;83.10
44894;DHT22;30625;52.206;21.030;2023-05-20T14:21:58;25.00;81.50
44894;DHT22;30625;52.206;21.030;2023-05-20T14:24:26;25.10;82.10
44894;DHT22;30625;52.206;21.030;2023-05-20T14:26:52;25.10;80.90
44894;DHT22;30625;52.206;21.030;2023-05-20T14:29:17;25.00;81.40
44894;DHT22;30625;52.206;21.030;2023-05-20T14:31:43;25.00;82.30
44894;DHT22;30625;52.206;21.030;2023-05-20T14:34:09;24.90;82.60
44894;DHT22;30625;52.206;21.030;2023-05-20T14:36:34;24.90;80.90
44894;DHT22;30625;52.206;21.030;2023-05-20T14:39:00;24.70;81.20
44894;DHT22;30625;52.206;21.030;2023-05-20T14:41:26;24.60;81.40
44894;DHT22;30625;52.206;21.030;2023-05-20T14:43:52;24.50;82.80
44894;DHT22;30625;52.206;21.030;2023-05-20T14:46:17;24.50;82.60
44894;DHT22;30625;52.206;21.030;2023-05-20T14:48:43;24.40;82.80
44894;DHT22;30625;52.206;21.030;2023-05-20T14:51:08;24.60;83.40
44894;DHT22;30625;52.206;21.030;2023-05-20T14:53:34;24.30;82.30
44894;DHT22;30625;52.206;21.030;2023-05-20T14:56:08;24.20;83.40
44894;DHT22;30625;52.206;21.030;2023-05-20T15:03:37;24.20;82.40
44894;DHT22;30625;52.206;21.030;2023-05-20T15:06:03;24.20;82.70
44894;DHT22;30625;52.206;21.030;2023-05-20T15:08:29;24.10;82.80
44894;DHT22;30625;52.206;21.030;2023-05-20T15:10:55;24.10;81.60
44894;DHT22;30625;52.206;21.030;2023-05-20T15:13:21;24.10;81.70
44894;DHT22;30625;52.206;21.030;2023-05-20T15:15:47;24.00;82.40
44894;DHT22;30625;52.206;21.030;2023-05-20T15:18:12;24.00;83.30
44894;DHT22;30625;52.206;21.030;2023-05-20T15:20:38;24.00;82.20
44894;DHT22;30625;52.206;21.030;2023-05-20T15:23:03;24.10;80.80
44894;DHT22;30625;52.206;21.030;2023-05-20T15:25:29;24.10;81.80
44894;DHT22;30625;52.206;21.030;2023-05-20T15:27:55;24.10;82.00
44894;DHT22;30625;52.206;21.030;2023-05-20T15:30:20;24.10;82.60
44894;DHT22;30625;52.206;21.030;2023-05-20T15:32:47;24.00;82.00